createdAt,value
2023-01-05T00:00:19.154Z,2.93
2023-01-05T00:02:24.373Z,2.83
2023-01-05T00:04:27.832Z,3.07
2023-01-05T00:06:30.703Z,3.30
2023-01-05T00:08:37.358Z,3.30
2023-01-05T00:10:57.588Z,2.93
2023-01-05T00:13:17.680Z,3.37
2023-01-05T00:15:39.530Z,3.00
2023-01-05T00:17:59.909Z,2.30
2023-01-05T00:20:20.650Z,2.87
2023-01-05T00:22:34.872Z,3.00
2023-01-05T00:24:37.814Z,3.40
2023-01-05T00:26:40.591Z,3.40
2023-01-05T00:28:43.439Z,2.63
2023-01-05T00:30:48.603Z,2.60
2023-01-05T00:32:51.974Z,2.50
2023-01-05T00:34:56.472Z,2.40
2023-01-05T00:36:59.245Z,2.17
2023-01-05T00:39:02.021Z,1.50
2023-01-05T00:41:04.812Z,0.90
2023-01-05T00:43:07.641Z,1.10
2023-01-05T00:45:12.735Z,1.10
2023-01-05T00:47:17.044Z,0.90
2023-01-05T00:49:19.838Z,0.80
2023-01-05T00:51:22.598Z,0.80
2023-01-05T00:53:25.404Z,0.60
2023-01-05T00:55:28.162Z,0.70
2023-01-05T00:57:30.871Z,0.70
2023-01-05T00:59:33.656Z,0.50
2023-01-05T01:01:36.674Z,0.63
2023-01-05T01:03:43.437Z,0.90
2023-01-05T01:05:46.349Z,1.10
2023-01-05T01:07:49.691Z,0.70
2023-01-05T01:09:52.513Z,0.85
2023-01-05T01:11:55.357Z,0.77
2023-01-05T01:13:58.122Z,0.77
2023-01-05T01:16:07.585Z,1.10
2023-01-05T01:18:10.529Z,0.82
2023-01-05T01:20:14.803Z,0.82
2023-01-05T01:22:19.478Z,0.75
2023-01-05T01:24:24.514Z,1.00
2023-01-05T01:26:27.349Z,1.20
2023-01-05T01:28:30.220Z,1.70
2023-01-05T01:30:33.160Z,1.70
2023-01-05T01:32:36.006Z,2.20
2023-01-05T01:34:39.419Z,1.92
2023-01-05T01:36:43.827Z,2.17
2023-01-05T01:38:46.561Z,2.30
2023-01-05T01:40:50.374Z,1.88
2023-01-05T01:42:53.134Z,1.85
2023-01-05T01:44:59.089Z,1.77
2023-01-05T01:47:01.960Z,2.10
2023-01-05T01:49:10.395Z,2.10
2023-01-05T01:51:16.769Z,1.65
2023-01-05T01:53:29.093Z,2.28
2023-01-05T01:55:33.167Z,2.00
2023-01-05T01:57:37.405Z,1.73
2023-01-05T01:59:40.624Z,1.90
2023-01-05T02:01:43.656Z,2.17
2023-01-05T02:03:46.856Z,2.45
2023-01-05T02:05:49.620Z,2.10
2023-01-05T02:07:52.369Z,2.40
2023-01-05T02:09:56.579Z,2.45
2023-01-05T02:12:07.903Z,2.40
2023-01-05T02:14:23.390Z,2.00
2023-01-05T02:16:36.067Z,2.33
2023-01-05T02:19:04.826Z,2.37
2023-01-05T02:21:26.310Z,2.20
2023-01-05T02:23:59.094Z,1.90
2023-01-05T02:26:31.492Z,2.40
2023-01-05T02:28:54.000Z,2.30
2023-01-05T02:31:05.345Z,2.17
2023-01-05T02:33:15.822Z,2.63
2023-01-05T02:35:26.053Z,2.57
2023-01-05T02:37:36.555Z,2.70
2023-01-05T02:39:49.904Z,2.50
2023-01-05T02:41:58.169Z,2.70
2023-01-05T02:44:02.152Z,2.33
2023-01-05T02:46:06.554Z,2.70
2023-01-05T02:48:09.731Z,2.50
2023-01-05T02:50:20.772Z,2.57
2023-01-05T02:52:26.136Z,2.70
2023-01-05T02:54:34.426Z,2.40
2023-01-05T02:56:41.943Z,2.50
2023-01-05T02:58:49.606Z,2.33
2023-01-05T03:00:54.922Z,2.53
2023-01-05T03:03:03.294Z,2.87
2023-01-05T03:05:11.523Z,2.87
2023-01-05T03:07:19.078Z,2.80
2023-01-05T03:09:36.651Z,2.50
2023-01-05T03:12:01.493Z,2.80
2023-01-05T03:14:11.230Z,2.30
2023-01-05T03:16:19.602Z,2.60
2023-01-05T03:18:24.372Z,2.77
2023-01-05T03:20:32.098Z,2.77
2023-01-05T03:22:55.293Z,2.87
2023-01-05T03:25:17.919Z,2.40
2023-01-05T03:27:39.213Z,3.00
2023-01-05T03:29:59.690Z,2.30
2023-01-05T03:32:24.611Z,2.37
2023-01-05T03:34:53.715Z,2.47
2023-01-05T03:37:03.592Z,2.80
2023-01-05T03:39:08.856Z,2.70
2023-01-05T03:41:17.060Z,2.40
2023-01-05T03:43:20.833Z,2.67
2023-01-05T03:45:25.629Z,2.97
2023-01-05T03:47:28.778Z,2.97
2023-01-05T03:49:34.634Z,2.30
2023-01-05T03:51:41.633Z,2.73
2023-01-05T03:53:45.016Z,2.63
2023-01-05T03:55:47.782Z,2.70
2023-01-05T03:57:50.646Z,2.93
2023-01-05T03:59:53.513Z,2.80
2023-01-05T04:01:58.771Z,3.53
2023-01-05T04:04:01.762Z,2.57
2023-01-05T04:06:06.220Z,2.83
2023-01-05T04:08:09.203Z,2.80
2023-01-05T04:10:12.237Z,2.80
2023-01-05T04:12:15.260Z,2.80
2023-01-05T04:14:18.079Z,2.53
2023-01-05T04:16:22.460Z,3.13
2023-01-05T04:18:25.222Z,3.10
2023-01-05T04:20:28.048Z,2.83
2023-01-05T04:22:32.251Z,2.80
2023-01-05T04:24:37.419Z,3.13
2023-01-05T04:26:41.828Z,2.93
2023-01-05T04:28:44.624Z,2.88
2023-01-05T04:30:51.383Z,2.80
2023-01-05T04:32:54.370Z,3.27
2023-01-05T04:34:57.249Z,3.03
2023-01-05T04:37:00.074Z,2.70
2023-01-05T04:39:04.557Z,3.07
2023-01-05T04:41:07.386Z,2.80
2023-01-05T04:43:10.130Z,2.63
2023-01-05T04:45:12.918Z,3.27
2023-01-05T04:47:15.681Z,3.53
2023-01-05T04:49:18.449Z,3.10
2023-01-05T04:51:21.218Z,3.00
2023-01-05T04:53:24.690Z,3.37
2023-01-05T04:55:28.731Z,3.10
2023-01-05T04:57:31.589Z,3.67
2023-01-05T04:59:34.383Z,3.07
2023-01-05T05:01:37.484Z,3.00
2023-01-05T05:03:43.170Z,3.07
2023-01-05T05:05:45.946Z,3.50
2023-01-05T05:07:49.024Z,3.30
2023-01-05T05:09:51.886Z,2.73
2023-01-05T05:11:57.500Z,2.90
2023-01-05T05:14:00.341Z,3.20
2023-01-05T05:16:05.116Z,3.17
2023-01-05T05:18:09.719Z,3.00
2023-01-05T05:20:13.124Z,3.10
2023-01-05T05:22:16.062Z,2.93
2023-01-05T05:24:18.974Z,3.37
2023-01-05T05:26:21.851Z,3.17
2023-01-05T05:28:28.942Z,3.10
2023-01-05T05:30:31.835Z,2.90
2023-01-05T05:32:39.377Z,2.87
2023-01-05T05:34:45.358Z,3.13
2023-01-05T05:36:48.258Z,3.27
2023-01-05T05:38:51.276Z,3.27
2023-01-05T05:40:54.475Z,3.33
2023-01-05T05:42:57.293Z,2.97
2023-01-05T05:45:01.730Z,3.30
2023-01-05T05:47:04.743Z,3.07
2023-01-05T05:49:08.649Z,3.63
2023-01-05T05:51:11.455Z,3.30
2023-01-05T05:53:14.596Z,3.00
2023-01-05T05:55:17.875Z,2.93
2023-01-05T05:57:20.737Z,3.17
2023-01-05T05:59:23.575Z,3.07
2023-01-05T06:01:27.854Z,3.07
2023-01-05T06:03:33.348Z,3.23
2023-01-05T06:05:36.167Z,3.20
2023-01-05T06:07:38.989Z,3.00
2023-01-05T06:09:41.771Z,3.17
2023-01-05T06:11:44.765Z,2.72
2023-01-05T06:13:48.677Z,2.93
2023-01-05T06:15:51.716Z,3.13
2023-01-05T06:17:55.962Z,3.07
2023-01-05T06:19:58.822Z,3.43
2023-01-05T06:22:02.053Z,3.17
2023-01-05T06:24:05.462Z,3.63
2023-01-05T06:26:09.484Z,3.07
2023-01-05T06:28:16.947Z,3.20
2023-01-05T06:30:23.368Z,3.17
2023-01-05T06:32:26.635Z,2.90
2023-01-05T06:34:30.899Z,2.70
2023-01-05T06:36:33.813Z,2.80
2023-01-05T06:38:36.985Z,3.40
2023-01-05T06:40:41.165Z,2.90
2023-01-05T06:42:44.156Z,3.50
2023-01-05T06:44:47.077Z,2.90
2023-01-05T06:46:49.850Z,3.00
2023-01-05T06:48:52.582Z,2.73
2023-01-05T06:50:56.784Z,2.83
2023-01-05T06:53:02.375Z,2.97
2023-01-05T06:55:05.678Z,3.00
2023-01-05T06:57:08.677Z,3.27
2023-01-05T06:59:12.555Z,3.13
2023-01-05T07:01:15.610Z,3.33
2023-01-05T07:03:18.469Z,2.80
2023-01-05T07:05:23.130Z,3.00
2023-01-05T07:07:27.344Z,3.50
2023-01-05T07:09:30.167Z,3.10
2023-01-05T07:11:33.131Z,3.33
2023-01-05T07:13:36.376Z,3.30
2023-01-05T07:15:39.097Z,2.90
2023-01-05T07:17:41.934Z,3.40
2023-01-05T07:19:44.841Z,2.90
2023-01-05T07:21:53.285Z,3.03
2023-01-05T07:24:00.762Z,2.90
2023-01-05T07:26:03.569Z,2.73
2023-01-05T07:28:06.385Z,2.77
2023-01-05T07:30:10.602Z,2.90
2023-01-05T07:32:13.709Z,3.57
2023-01-05T07:34:16.449Z,3.03
2023-01-05T07:36:19.355Z,3.10
2023-01-05T07:38:22.378Z,2.77
2023-01-05T07:40:27.179Z,4.00
2023-01-05T07:42:30.515Z,3.57
2023-01-05T07:44:33.329Z,2.80
2023-01-05T07:46:37.385Z,3.57
2023-01-05T07:48:41.610Z,3.37
2023-01-05T07:50:44.504Z,3.07
2023-01-05T07:52:47.554Z,3.50
2023-01-05T07:54:50.310Z,3.10
2023-01-05T07:56:54.508Z,3.93
2023-01-05T07:58:57.462Z,3.20
2023-01-05T08:01:04.612Z,3.73
2023-01-05T08:03:07.459Z,3.80
2023-01-05T08:05:10.921Z,3.93
2023-01-05T08:07:15.578Z,4.23
2023-01-05T08:09:36.158Z,4.10
2023-01-05T08:11:39.943Z,3.80
2023-01-05T08:14:00.446Z,3.80
2023-01-05T08:16:03.560Z,4.40
2023-01-05T08:18:07.612Z,3.87
2023-01-05T08:20:11.425Z,3.83
2023-01-05T08:22:14.622Z,3.70
2023-01-05T08:24:17.587Z,3.30
2023-01-05T08:26:22.941Z,3.27
2023-01-05T08:28:33.048Z,4.07
2023-01-05T08:30:40.830Z,3.40
2023-01-05T08:32:43.769Z,3.60
2023-01-05T08:34:51.947Z,3.40
2023-01-05T08:36:58.008Z,3.70
2023-01-05T08:39:02.139Z,3.57
2023-01-05T08:41:05.412Z,3.30
2023-01-05T08:43:08.189Z,3.13
2023-01-05T08:45:11.925Z,3.20
2023-01-05T08:47:18.247Z,3.70
2023-01-05T08:49:21.472Z,3.57
2023-01-05T08:51:25.063Z,3.27
2023-01-05T08:53:28.016Z,3.33
2023-01-05T08:55:30.935Z,3.70
2023-01-05T08:57:33.858Z,2.87
2023-01-05T08:59:36.784Z,3.30
2023-01-05T09:01:40.153Z,3.10
2023-01-05T09:03:45.017Z,3.63
2023-01-05T09:05:48.044Z,3.67
2023-01-05T09:07:51.033Z,3.73
2023-01-05T09:09:53.899Z,3.47
2023-01-05T09:11:56.957Z,3.40
2023-01-05T09:14:02.941Z,3.70
2023-01-05T09:16:07.828Z,3.63
2023-01-05T09:18:10.910Z,3.33
2023-01-05T09:20:15.232Z,3.43
2023-01-05T09:22:18.087Z,3.40
2023-01-05T09:24:22.424Z,3.13
2023-01-05T09:26:25.552Z,3.57
2023-01-05T09:28:28.387Z,3.30
2023-01-05T09:30:37.964Z,2.97
2023-01-05T09:32:44.883Z,3.07
2023-01-05T09:34:47.769Z,3.00
2023-01-05T09:36:52.259Z,3.17
2023-01-05T09:38:57.252Z,3.13
2023-01-05T09:41:05.692Z,3.27
2023-01-05T09:43:15.252Z,2.83
2023-01-05T09:45:25.710Z,3.67
2023-01-05T09:47:33.320Z,3.90
2023-01-05T09:49:36.310Z,3.83
2023-01-05T09:51:39.514Z,3.75
2023-01-05T09:53:43.791Z,3.45
2023-01-05T09:55:50.471Z,3.27
2023-01-05T09:57:57.280Z,3.00
2023-01-05T10:00:03.990Z,3.50
2023-01-05T10:02:17.449Z,3.47
2023-01-05T10:04:28.415Z,3.22
2023-01-05T10:06:38.561Z,2.83
2023-01-05T10:08:46.454Z,3.10
2023-01-05T10:11:06.844Z,3.22
2023-01-05T10:13:21.031Z,2.90
2023-01-05T10:15:24.369Z,2.60
2023-01-05T10:17:42.872Z,2.93
2023-01-05T10:19:47.724Z,3.13
2023-01-05T10:21:59.586Z,3.27
2023-01-05T10:24:16.510Z,3.10
2023-01-05T10:27:24.701Z,3.07
2023-01-05T10:29:35.660Z,3.00
2023-01-05T10:31:46.909Z,3.15
2023-01-05T10:33:55.839Z,2.80
2023-01-05T10:36:11.951Z,3.05
2023-01-05T10:38:26.366Z,2.90
2023-01-05T10:40:41.863Z,3.33
2023-01-05T10:42:58.185Z,3.00
2023-01-05T10:45:06.981Z,3.27
2023-01-05T10:47:11.096Z,3.67
2023-01-05T10:49:20.216Z,3.30
2023-01-05T10:51:23.097Z,3.35
2023-01-05T10:53:27.923Z,3.60
2023-01-05T10:55:32.921Z,3.40
2023-01-05T10:57:42.226Z,3.13
2023-01-05T10:59:59.114Z,3.67
2023-01-05T11:02:02.978Z,3.58
2023-01-05T11:04:33.192Z,3.30
2023-01-05T11:06:35.262Z,3.20
2023-01-05T11:08:39.292Z,3.28
2023-01-05T11:10:51.677Z,3.95
2023-01-05T11:13:02.362Z,3.30
2023-01-05T11:15:08.091Z,3.53
2023-01-05T11:17:23.638Z,3.73
2023-01-05T11:19:32.752Z,3.40
2023-01-05T11:21:44.377Z,3.80
2023-01-05T11:23:49.824Z,3.83
2023-01-05T11:25:54.170Z,3.50
2023-01-05T11:28:10.748Z,3.50
2023-01-05T11:30:25.334Z,3.42
2023-01-05T11:32:28.585Z,3.65
2023-01-05T11:34:39.461Z,4.40
2023-01-05T11:36:43.795Z,3.78
2023-01-05T11:38:54.828Z,3.85
2023-01-05T11:41:01.549Z,4.35
2023-01-05T11:43:12.589Z,4.07
2023-01-05T11:45:22.035Z,4.35
2023-01-05T11:47:29.396Z,4.32
2023-01-05T11:49:32.168Z,3.78
2023-01-05T11:51:36.281Z,3.90
2023-01-05T11:53:40.810Z,4.38
2023-01-05T11:55:43.659Z,4.85
2023-01-05T11:57:50.581Z,4.23
2023-01-05T11:59:58.604Z,4.50
2023-01-05T12:02:14.729Z,4.23
2023-01-05T12:04:30.475Z,4.25
2023-01-05T12:07:05.792Z,4.18
2023-01-05T12:09:17.166Z,3.93
2023-01-05T12:11:22.857Z,4.60
2023-01-05T12:13:54.923Z,4.33
2023-01-05T12:16:10.257Z,3.43
2023-01-05T12:18:38.394Z,4.43
2023-01-05T12:20:58.036Z,5.80
2023-01-05T12:23:27.588Z,4.90
2023-01-05T12:25:45.683Z,3.73
2023-01-05T12:28:11.786Z,3.75
2023-01-05T12:36:05.458Z,5.95
2023-01-05T12:38:27.752Z,4.00
2023-01-05T12:40:43.574Z,3.55
2023-01-05T12:42:59.950Z,4.28
2023-01-05T12:45:32.291Z,3.50
2023-01-05T12:47:53.437Z,4.10
2023-01-05T12:50:01.458Z,4.55
2023-01-05T12:52:11.796Z,4.32
2023-01-05T12:54:28.052Z,3.75
2023-01-05T12:56:34.971Z,4.15
2023-01-05T12:58:40.632Z,4.28
2023-01-05T13:00:46.849Z,5.05
2023-01-05T13:02:55.515Z,3.97
2023-01-05T13:05:03.463Z,6.05
2023-01-05T13:07:10.621Z,4.25
2023-01-05T13:09:17.831Z,4.32
2023-01-05T13:11:26.132Z,4.00
2023-01-05T13:13:32.851Z,5.88
2023-01-05T13:15:41.963Z,4.00
2023-01-05T13:17:49.854Z,3.50
2023-01-05T13:20:01.135Z,4.00
2023-01-05T13:22:11.463Z,3.65
2023-01-05T13:24:22.959Z,7.90
2023-01-05T13:26:25.795Z,3.10
2023-01-05T13:28:31.305Z,3.53
2023-01-05T13:30:43.606Z,3.20
2023-01-05T13:33:09.456Z,3.13
2023-01-05T13:35:35.221Z,3.03
2023-01-05T13:38:08.367Z,3.97
2023-01-05T13:40:35.176Z,3.08
2023-01-05T13:42:54.220Z,3.00
2023-01-05T13:45:18.370Z,3.38
2023-01-05T13:47:37.413Z,7.38
2023-01-05T13:50:23.794Z,3.05
2023-01-05T13:52:39.999Z,3.17
2023-01-05T13:55:02.060Z,3.33
2023-01-05T13:57:09.058Z,2.78
2023-01-05T13:59:34.480Z,2.92
2023-01-05T14:01:44.769Z,2.60
2023-01-05T14:03:51.882Z,2.47
2023-01-05T14:05:57.800Z,2.40
2023-01-05T14:08:15.593Z,2.65
2023-01-05T14:10:23.531Z,2.97
2023-01-05T14:12:43.339Z,2.90
2023-01-05T14:15:32.269Z,3.17
2023-01-05T14:17:55.459Z,2.63
2023-01-05T14:19:58.404Z,2.60
2023-01-05T14:22:33.534Z,2.35
2023-01-05T14:27:04.900Z,2.95
2023-01-05T14:29:09.348Z,3.72
2023-01-05T14:31:48.574Z,2.25
2023-01-05T14:33:54.456Z,2.70
2023-01-05T14:36:24.409Z,2.88
2023-01-05T14:38:27.356Z,2.80
2023-01-05T14:40:38.352Z,3.95
2023-01-05T14:42:43.576Z,2.70
2023-01-05T14:44:51.102Z,3.00
2023-01-05T14:46:55.816Z,4.70
2023-01-05T14:49:05.036Z,3.45
2023-01-05T14:51:13.687Z,2.58
2023-01-05T14:53:41.203Z,4.07
2023-01-05T14:56:17.457Z,3.05
2023-01-05T14:58:56.452Z,3.45
2023-01-05T15:01:03.599Z,3.60
2023-01-05T15:05:22.290Z,2.47
2023-01-05T15:07:35.837Z,2.85
2023-01-05T15:09:51.468Z,3.03
2023-01-05T15:12:19.635Z,2.60
2023-01-05T15:14:49.975Z,2.60
2023-01-05T15:17:20.747Z,5.10
2023-01-05T15:19:44.114Z,3.20
2023-01-05T15:22:12.973Z,2.42
2023-01-05T15:24:51.911Z,2.90
2023-01-05T15:27:12.208Z,2.40
2023-01-05T15:29:40.119Z,2.30
2023-01-05T15:31:48.841Z,2.57
2023-01-05T15:33:58.393Z,2.53
2023-01-05T15:36:04.853Z,2.30
2023-01-05T15:38:22.562Z,2.80
2023-01-05T15:40:30.826Z,2.10
2023-01-05T15:42:39.702Z,2.30
2023-01-05T15:44:47.711Z,2.40
2023-01-05T15:46:51.884Z,2.55
2023-01-05T15:48:55.458Z,2.80
2023-01-05T15:50:59.635Z,2.20
2023-01-05T15:53:03.825Z,2.90
2023-01-05T15:55:15.048Z,2.53
2023-01-05T15:57:21.937Z,2.60
2023-01-05T15:59:31.442Z,2.93
2023-01-05T16:01:38.762Z,2.67
2023-01-05T16:03:44.574Z,2.20
2023-01-05T16:05:49.506Z,2.80
2023-01-05T16:07:57.538Z,2.97
2023-01-05T16:10:00.436Z,2.60
2023-01-05T16:12:07.910Z,2.43
2023-01-05T16:14:15.680Z,2.73
2023-01-05T16:16:49.564Z,2.60
2023-01-05T16:18:51.383Z,2.63
2023-01-05T16:20:56.517Z,2.30
2023-01-05T16:23:08.244Z,2.70
2023-01-05T16:25:16.670Z,3.00
2023-01-05T16:27:20.131Z,2.83
2023-01-05T16:29:34.044Z,3.20
2023-01-05T16:31:38.553Z,3.40
2023-01-05T16:33:41.380Z,3.67
2023-01-05T16:35:47.373Z,3.87
2023-01-05T16:38:13.869Z,3.27
2023-01-05T16:40:21.190Z,3.23
2023-01-05T16:42:39.640Z,3.20
2023-01-05T16:44:42.967Z,4.20
2023-01-05T16:46:45.878Z,3.57
2023-01-05T16:48:51.456Z,4.23
2023-01-05T16:50:57.304Z,3.57
2023-01-05T16:53:05.327Z,3.70
2023-01-05T16:55:29.345Z,3.70
2023-01-05T16:57:40.668Z,3.53
2023-01-05T16:59:47.430Z,3.80
2023-01-05T17:01:50.683Z,3.70
2023-01-05T17:03:54.515Z,3.77
2023-01-05T17:06:00.901Z,4.17
2023-01-05T17:08:07.515Z,3.77
2023-01-05T17:10:17.485Z,4.20
2023-01-05T17:12:20.579Z,4.43
2023-01-05T17:14:24.196Z,4.40
2023-01-05T17:16:26.973Z,4.50
2023-01-05T17:18:31.195Z,3.87
2023-01-05T17:20:41.360Z,4.07
2023-01-05T17:22:45.617Z,4.60
2023-01-05T17:24:49.065Z,5.10
2023-01-05T17:26:51.956Z,4.50
2023-01-05T17:28:58.731Z,4.53
2023-01-05T17:31:01.597Z,3.73
2023-01-05T17:33:06.327Z,4.07
2023-01-05T17:35:09.911Z,4.03
2023-01-05T17:37:16.607Z,4.43
2023-01-05T17:39:22.075Z,4.93
2023-01-05T17:41:24.825Z,4.87
2023-01-05T17:43:27.585Z,4.83
2023-01-05T17:45:30.876Z,4.77
2023-01-05T17:49:36.302Z,5.17
2023-01-05T17:51:39.123Z,4.67
2023-01-05T17:53:41.890Z,4.30
2023-01-05T17:55:46.034Z,4.43
2023-01-05T17:57:49.699Z,9.53
2023-01-05T17:59:52.528Z,4.60
2023-01-05T18:01:56.073Z,4.60
2023-01-05T18:03:59.000Z,4.83
2023-01-05T18:06:02.668Z,4.40
2023-01-05T18:10:15.856Z,4.50
2023-01-05T18:12:19.981Z,4.00
2023-01-05T18:14:23.301Z,5.00
2023-01-05T18:16:26.558Z,4.50
2023-01-05T18:18:30.023Z,4.80
2023-01-05T18:20:32.795Z,5.00
2023-01-05T18:22:37.643Z,4.80
2023-01-05T18:24:41.203Z,4.10
2023-01-05T18:26:44.247Z,4.87
2023-01-05T18:28:48.598Z,4.50
2023-01-05T18:30:51.371Z,4.23
2023-01-05T18:32:54.089Z,4.27
2023-01-05T18:34:56.941Z,3.70
2023-01-05T18:37:06.183Z,4.40
2023-01-05T18:39:13.523Z,4.67
2023-01-05T18:41:16.301Z,5.13
2023-01-05T18:43:19.090Z,4.40
2023-01-05T18:45:32.077Z,4.37
2023-01-05T18:47:35.816Z,4.47
2023-01-05T18:49:38.529Z,4.50
2023-01-05T18:51:41.781Z,4.27
2023-01-05T18:53:44.685Z,4.53
2023-01-05T18:55:47.745Z,4.40
2023-01-05T18:57:50.504Z,4.13
2023-01-05T18:59:53.351Z,3.93
2023-01-05T19:01:57.794Z,3.87
2023-01-05T19:04:00.637Z,3.93
2023-01-05T19:06:06.877Z,3.80
2023-01-05T19:08:10.526Z,3.77
2023-01-05T19:10:13.479Z,4.33
2023-01-05T19:12:16.602Z,4.43
2023-01-05T19:14:19.370Z,4.53
2023-01-05T19:16:23.904Z,4.40
2023-01-05T19:18:28.223Z,3.97
2023-01-05T19:20:31.605Z,4.30
2023-01-05T19:22:35.034Z,4.77
2023-01-05T19:24:37.920Z,4.37
2023-01-05T19:26:40.680Z,4.70
2023-01-05T19:28:45.154Z,4.80
2023-01-05T19:30:48.128Z,4.93
2023-01-05T19:32:51.204Z,4.63
2023-01-05T19:34:55.366Z,4.90
2023-01-05T19:36:58.164Z,5.03
2023-01-05T19:39:08.556Z,5.70
2023-01-05T19:41:13.431Z,5.73
2023-01-05T19:43:16.466Z,5.53
2023-01-05T19:45:19.240Z,5.47
2023-01-05T19:47:21.987Z,5.30
2023-01-05T19:49:26.772Z,5.67
2023-01-05T19:51:31.597Z,5.50
2023-01-05T19:53:35.879Z,5.50
2023-01-05T19:55:39.990Z,5.40
2023-01-05T19:57:42.781Z,5.30
2023-01-05T19:59:45.541Z,5.20
2023-01-05T20:01:48.724Z,6.23
2023-01-05T20:03:52.176Z,6.60
2023-01-05T20:06:04.513Z,5.97
2023-01-05T20:08:08.784Z,5.17
2023-01-05T20:10:11.829Z,6.60
2023-01-05T20:12:15.610Z,5.40
2023-01-05T20:14:20.685Z,5.47
2023-01-05T20:16:23.553Z,6.93
2023-01-05T20:18:26.321Z,6.10
2023-01-05T20:20:29.119Z,7.17
2023-01-05T20:22:31.887Z,5.87
2023-01-05T20:24:37.245Z,5.60
2023-01-05T20:26:42.001Z,5.63
2023-01-05T20:28:45.530Z,5.90
2023-01-05T20:30:48.315Z,5.90
2023-01-05T20:32:51.155Z,6.60
2023-01-05T20:34:57.253Z,6.53
2023-01-05T20:37:01.632Z,7.07
2023-01-05T20:39:06.438Z,7.10
2023-01-05T20:41:20.050Z,7.23
2023-01-05T20:43:22.833Z,6.50
2023-01-05T20:45:25.673Z,6.77
2023-01-05T20:47:29.975Z,6.53
2023-01-05T20:49:34.812Z,6.63
2023-01-05T20:51:39.104Z,6.10
2023-01-05T20:53:42.296Z,6.37
2023-01-05T20:55:50.630Z,6.57
2023-01-05T20:57:54.701Z,6.82
2023-01-05T20:59:57.456Z,5.90
2023-01-05T21:02:01.608Z,5.77
2023-01-05T21:04:04.869Z,6.13
2023-01-05T21:06:09.664Z,6.00
2023-01-05T21:08:13.836Z,6.20
2023-01-05T21:10:16.708Z,5.70
2023-01-05T21:12:20.365Z,6.43
2023-01-05T21:14:24.607Z,6.40
2023-01-05T21:16:31.085Z,6.83
2023-01-05T21:18:34.400Z,7.10
2023-01-05T21:20:41.945Z,6.20
2023-01-05T21:22:44.745Z,6.10
2023-01-05T21:24:47.661Z,6.33
2023-01-05T21:26:50.512Z,6.33
2023-01-05T21:28:55.086Z,6.73
2023-01-05T21:31:03.273Z,6.97
2023-01-05T21:33:06.303Z,6.87
2023-01-05T21:35:10.113Z,7.40
2023-01-05T21:37:12.904Z,7.60
2023-01-05T21:39:20.438Z,6.33
2023-01-05T21:41:37.210Z,7.00
2023-01-05T21:43:39.975Z,7.70
2023-01-05T21:45:44.178Z,7.83
2023-01-05T21:47:52.788Z,7.57
2023-01-05T21:49:55.560Z,8.10
2023-01-05T21:52:16.337Z,7.60
2023-01-05T21:54:38.369Z,7.90
2023-01-05T21:56:44.343Z,8.20
2023-01-05T21:58:47.466Z,7.60
2023-01-05T22:00:50.293Z,7.43
2023-01-05T22:02:54.457Z,7.17
2023-01-05T22:04:57.305Z,7.23
2023-01-05T22:07:00.065Z,7.60
2023-01-05T22:09:02.805Z,7.53
2023-01-05T22:11:05.704Z,8.00
2023-01-05T22:13:08.629Z,7.53
2023-01-05T22:15:12.540Z,7.70
2023-01-05T22:17:15.356Z,8.30
2023-01-05T22:19:19.620Z,7.30
2023-01-05T22:21:22.565Z,7.20
2023-01-05T22:23:27.110Z,6.73
2023-01-05T22:25:30.768Z,6.97
2023-01-05T22:27:33.540Z,7.27
2023-01-05T22:29:36.502Z,6.10
2023-01-05T22:31:39.344Z,6.33
2023-01-05T22:33:44.423Z,6.70
2023-01-05T22:35:48.512Z,7.40
2023-01-05T22:37:53.297Z,6.90
2023-01-05T22:39:56.019Z,6.83
2023-01-05T22:41:58.762Z,6.73
2023-01-05T22:44:02.882Z,6.97
2023-01-05T22:46:07.677Z,6.70
2023-01-05T22:48:10.446Z,6.57
2023-01-05T22:50:13.234Z,7.37
2023-01-05T22:52:17.563Z,7.47
2023-01-05T22:54:20.655Z,7.20
2023-01-05T22:56:25.602Z,6.87
2023-01-05T22:58:29.122Z,6.97
2023-01-05T23:00:33.018Z,6.90
2023-01-05T23:02:35.941Z,7.20
2023-01-05T23:04:38.964Z,6.70
2023-01-05T23:06:43.050Z,7.40
2023-01-05T23:08:48.600Z,7.70
2023-01-05T23:10:51.384Z,7.77
2023-01-05T23:12:54.698Z,7.63
2023-01-05T23:14:57.499Z,7.97
2023-01-05T23:17:02.420Z,7.63
2023-01-05T23:19:07.144Z,7.57
2023-01-05T23:21:12.885Z,7.13
2023-01-05T23:23:15.884Z,8.37
2023-01-05T23:25:20.497Z,8.37
2023-01-05T23:27:23.768Z,8.70
2023-01-05T23:29:27.393Z,8.23
2023-01-05T23:31:30.386Z,9.80
2023-01-05T23:33:36.421Z,9.50
2023-01-05T23:35:39.825Z,10.10
2023-01-05T23:37:42.566Z,10.17
2023-01-05T23:39:46.007Z,10.00
2023-01-05T23:41:50.407Z,10.90
2023-01-05T23:43:53.537Z,10.97
2023-01-05T23:46:01.508Z,11.60
2023-01-05T23:48:05.120Z,11.67
2023-01-05T23:50:11.572Z,12.10
2023-01-05T23:52:14.472Z,12.80
2023-01-05T23:54:17.767Z,12.63
2023-01-05T23:56:22.721Z,13.47
2023-01-05T23:58:27.153Z,13.73
